createdAt,value
2018-07-24T00:00:27.787Z,16.80
2018-07-24T00:03:32.785Z,16.80
2018-07-24T00:06:37.204Z,16.70
2018-07-24T00:09:41.543Z,16.70
2018-07-24T00:12:45.879Z,16.90
2018-07-24T00:15:50.383Z,16.90
2018-07-24T00:18:54.864Z,16.80
2018-07-24T00:21:59.201Z,16.80
2018-07-24T00:25:03.850Z,16.90
2018-07-24T00:28:08.132Z,16.90
2018-07-24T00:31:12.498Z,16.70
2018-07-24T00:34:16.916Z,16.60
2018-07-24T00:37:21.709Z,16.60
2018-07-24T00:40:26.300Z,16.50
2018-07-24T00:43:31.148Z,16.50
2018-07-24T00:46:36.299Z,16.30
2018-07-24T00:49:41.974Z,16.20
2018-07-24T00:52:46.260Z,16.30
2018-07-24T00:55:51.520Z,16.50
2018-07-24T00:58:55.818Z,16.20
2018-07-24T01:02:00.374Z,16.10
2018-07-24T01:05:04.856Z,16.30
2018-07-24T01:08:09.689Z,16.20
2018-07-24T01:11:14.020Z,16.00
2018-07-24T01:14:18.310Z,15.80
2018-07-24T01:17:22.797Z,15.70
2018-07-24T01:20:30.894Z,15.60
2018-07-24T01:23:35.188Z,15.60
2018-07-24T01:26:39.596Z,15.60
2018-07-24T01:29:43.990Z,15.50
2018-07-24T01:32:49.051Z,15.70
2018-07-24T01:35:53.592Z,15.70
2018-07-24T01:38:57.949Z,15.50
2018-07-24T01:42:02.380Z,15.60
2018-07-24T01:45:07.755Z,15.50
2018-07-24T01:48:12.132Z,15.40
2018-07-24T01:51:16.451Z,15.40
2018-07-24T01:54:20.783Z,15.40
2018-07-24T01:57:25.839Z,15.50
2018-07-24T02:00:30.366Z,15.60
2018-07-24T02:03:36.411Z,15.40
2018-07-24T02:06:41.331Z,15.20
2018-07-24T02:09:46.302Z,15.10
2018-07-24T02:12:51.058Z,15.10
2018-07-24T02:15:55.855Z,15.30
2018-07-24T02:19:00.874Z,15.10
2018-07-24T02:22:05.497Z,14.90
2018-07-24T02:25:09.844Z,14.90
2018-07-24T02:28:14.328Z,14.80
2018-07-24T02:31:18.650Z,14.90
2018-07-24T02:34:23.100Z,14.90
2018-07-24T02:37:31.036Z,14.80
2018-07-24T02:40:35.465Z,14.90
2018-07-24T02:43:40.024Z,15.10
2018-07-24T02:46:44.324Z,15.20
2018-07-24T02:49:48.745Z,15.10
2018-07-24T02:52:53.029Z,14.90
2018-07-24T02:55:59.188Z,14.90
2018-07-24T02:59:04.256Z,14.90
2018-07-24T03:02:09.091Z,14.80
2018-07-24T03:05:14.552Z,14.70
2018-07-24T03:08:19.173Z,14.60
2018-07-24T03:11:23.471Z,14.50
2018-07-24T03:14:28.048Z,14.80
2018-07-24T03:17:32.541Z,14.80
2018-07-24T03:20:36.848Z,14.90
2018-07-24T03:23:41.563Z,14.70
2018-07-24T03:26:46.137Z,14.70
2018-07-24T03:29:50.760Z,14.50
2018-07-24T03:32:55.187Z,14.40
2018-07-24T03:35:59.819Z,14.60
2018-07-24T03:39:06.263Z,14.80
2018-07-24T03:42:10.555Z,15.00
2018-07-24T03:45:15.458Z,15.00
2018-07-24T03:48:20.075Z,15.10
2018-07-24T03:51:26.840Z,15.20
2018-07-24T03:54:31.749Z,15.20
2018-07-24T04:00:40.934Z,14.70
2018-07-24T04:03:45.214Z,14.60
2018-07-24T04:07:03.739Z,14.70
2018-07-24T04:10:08.156Z,14.90
2018-07-24T04:13:13.170Z,14.90
2018-07-24T04:16:17.584Z,14.70
2018-07-24T04:19:22.726Z,14.60
2018-07-24T04:22:27.194Z,14.60
2018-07-24T04:25:31.727Z,14.60
2018-07-24T04:28:36.358Z,14.60
2018-07-24T04:31:40.714Z,14.90
2018-07-24T04:34:45.590Z,14.90
2018-07-24T04:37:50.403Z,14.90
2018-07-24T04:40:54.775Z,15.10
2018-07-24T04:43:59.283Z,15.30
2018-07-24T04:47:04.176Z,15.30
2018-07-24T04:50:08.456Z,15.40
2018-07-24T04:53:14.412Z,15.40
2018-07-24T04:56:18.851Z,15.50
2018-07-24T04:59:25.839Z,15.70
2018-07-24T05:02:31.538Z,15.90
2018-07-24T05:05:36.001Z,16.00
2018-07-24T05:08:40.333Z,16.00
2018-07-24T05:11:46.379Z,16.10
2018-07-24T05:14:50.740Z,16.20
2018-07-24T05:17:56.037Z,16.40
2018-07-24T05:21:00.429Z,16.50
2018-07-24T05:24:05.545Z,16.50
2018-07-24T05:27:09.952Z,16.70
2018-07-24T05:30:14.431Z,16.80
2018-07-24T05:33:19.472Z,16.80
2018-07-24T05:36:23.837Z,16.90
2018-07-24T05:39:29.108Z,16.90
2018-07-24T05:42:35.194Z,17.10
2018-07-24T05:45:40.134Z,17.10
2018-07-24T05:48:44.673Z,17.20
2018-07-24T05:51:49.016Z,17.40
2018-07-24T05:54:54.283Z,17.60
2018-07-24T05:58:03.380Z,17.60
2018-07-24T06:01:07.874Z,17.70
2018-07-24T06:04:12.383Z,17.70
2018-07-24T06:07:17.079Z,17.80
2018-07-24T06:10:22.895Z,18.00
2018-07-24T06:13:27.402Z,18.40
2018-07-24T06:16:32.816Z,18.40
2018-07-24T06:19:37.632Z,18.80
2018-07-24T06:22:42.265Z,19.10
2018-07-24T06:25:46.899Z,19.50
2018-07-24T06:28:51.635Z,20.20
2018-07-24T06:31:56.452Z,22.70
2018-07-24T06:35:02.987Z,24.90
2018-07-24T06:38:09.815Z,27.30
2018-07-24T06:41:15.675Z,28.40
2018-07-24T06:44:25.401Z,29.30
2018-07-24T06:47:29.992Z,29.20
2018-07-24T06:50:34.746Z,30.70
2018-07-24T06:53:39.983Z,30.60
2018-07-24T06:56:45.609Z,31.00
2018-07-24T06:59:50.534Z,31.90
2018-07-24T07:02:58.958Z,32.90
2018-07-24T07:06:04.172Z,33.80
2018-07-24T07:09:10.131Z,33.70
2018-07-24T07:12:15.993Z,34.80
2018-07-24T07:15:22.132Z,34.60
2018-07-24T07:18:29.221Z,34.30
2018-07-24T07:21:35.727Z,35.10
2018-07-24T07:27:45.437Z,35.70
2018-07-24T07:30:50.286Z,35.70
2018-07-24T07:33:55.204Z,35.90
2018-07-24T07:36:59.852Z,35.70
2018-07-24T07:40:07.631Z,36.70
2018-07-24T07:43:24.160Z,37.70
2018-07-24T07:46:28.581Z,37.60
2018-07-24T07:49:33.507Z,36.80
2018-07-24T07:52:38.040Z,36.90
2018-07-24T07:55:42.666Z,37.20
2018-07-24T07:58:52.261Z,37.30
2018-07-24T08:05:01.517Z,37.50
2018-07-24T08:08:07.658Z,36.90
2018-07-24T08:11:12.635Z,37.10
2018-07-24T08:14:19.769Z,37.30
2018-07-24T08:17:24.246Z,37.90
2018-07-24T08:20:35.177Z,37.60
2018-07-24T08:23:43.447Z,37.10
2018-07-24T08:26:48.009Z,37.20
2018-07-24T08:29:52.458Z,37.20
2018-07-24T08:32:57.765Z,37.10
2018-07-24T08:36:03.553Z,37.80
2018-07-24T08:42:16.509Z,37.90
2018-07-24T08:45:23.793Z,38.00
2018-07-24T08:48:29.309Z,38.60
2018-07-24T08:51:36.153Z,37.70
2018-07-24T08:54:42.704Z,37.00
2018-07-24T08:58:08.012Z,37.10
2018-07-24T09:01:12.377Z,37.70
2018-07-24T09:04:17.771Z,38.60
2018-07-24T09:07:22.056Z,36.90
2018-07-24T09:10:26.473Z,35.90
2018-07-24T09:13:31.304Z,35.50
2018-07-24T09:16:36.522Z,35.30
2018-07-24T09:19:40.954Z,34.20
2018-07-24T09:22:47.332Z,35.70
2018-07-24T09:25:51.718Z,36.10
2018-07-24T09:28:56.888Z,36.90
2018-07-24T09:32:01.326Z,37.40
2018-07-24T09:35:07.687Z,36.60
2018-07-24T09:38:13.549Z,35.90
2018-07-24T09:41:18.034Z,34.50
2018-07-24T09:47:31.084Z,35.80
2018-07-24T09:50:38.635Z,35.00
2018-07-24T09:53:43.767Z,34.90
2018-07-24T09:56:50.509Z,35.20
2018-07-24T09:59:54.827Z,34.70
2018-07-24T10:03:01.077Z,34.10
2018-07-24T10:06:05.527Z,34.00
2018-07-24T10:09:11.866Z,34.60
2018-07-24T10:12:18.595Z,34.30
2018-07-24T10:15:25.284Z,33.80
2018-07-24T10:18:29.636Z,34.50
2018-07-24T10:21:35.285Z,34.80
2018-07-24T10:24:39.688Z,34.30
2018-07-24T10:27:46.190Z,34.40
2018-07-24T10:30:50.494Z,34.60
2018-07-24T10:33:55.884Z,34.70
2018-07-24T10:37:00.853Z,34.70
2018-07-24T10:40:05.701Z,34.70
2018-07-24T10:43:11.023Z,34.80
2018-07-24T10:46:15.347Z,34.80
2018-07-24T10:49:20.616Z,34.40
2018-07-24T10:52:25.097Z,34.60
2018-07-24T10:55:32.301Z,34.50
2018-07-24T10:58:36.669Z,35.10
2018-07-24T11:01:41.072Z,34.40
2018-07-24T11:04:46.234Z,34.00
2018-07-24T11:07:51.550Z,34.00
2018-07-24T11:10:56.847Z,33.40
2018-07-24T11:14:01.279Z,34.10
2018-07-24T11:17:05.893Z,34.10
2018-07-24T11:20:11.059Z,34.70
2018-07-24T11:23:15.631Z,35.10
2018-07-24T11:26:20.252Z,34.30
2018-07-24T11:29:24.930Z,34.40
2018-07-24T11:32:29.570Z,33.90
2018-07-24T11:35:34.574Z,33.40
2018-07-24T11:38:43.895Z,32.80
2018-07-24T11:41:49.219Z,32.60
2018-07-24T11:44:54.765Z,32.30
2018-07-24T11:48:00.338Z,31.60
2018-07-24T11:51:04.777Z,31.60
2018-07-24T11:54:10.120Z,31.80
2018-07-24T11:57:17.059Z,31.90
2018-07-24T12:00:32.212Z,31.00
2018-07-24T12:04:22.134Z,30.60
2018-07-24T12:07:29.333Z,30.70
2018-07-24T12:10:48.511Z,30.50
2018-07-24T12:14:02.367Z,30.30
2018-07-24T12:17:08.440Z,30.20
2018-07-24T12:20:17.075Z,30.10
2018-07-24T12:23:24.625Z,29.90
2018-07-24T12:26:31.151Z,30.10
2018-07-24T12:29:35.556Z,30.30
2018-07-24T12:32:40.500Z,30.30
2018-07-24T12:35:45.544Z,30.40
2018-07-24T12:38:50.008Z,30.40
2018-07-24T12:41:55.001Z,30.40
2018-07-24T12:45:00.561Z,30.30
2018-07-24T12:48:05.206Z,30.50
2018-07-24T12:51:10.947Z,30.50
2018-07-24T12:54:16.420Z,30.30
2018-07-24T12:57:36.095Z,30.10
2018-07-24T13:00:40.626Z,30.30
2018-07-24T13:03:45.210Z,30.60
2018-07-24T13:06:53.360Z,30.00
2018-07-24T13:09:57.922Z,30.10
2018-07-24T13:13:03.014Z,30.30
2018-07-24T13:16:09.585Z,30.30
2018-07-24T13:19:13.927Z,30.20
2018-07-24T13:22:20.332Z,30.10
2018-07-24T13:25:25.561Z,30.20
2018-07-24T13:28:32.590Z,30.40
2018-07-24T13:31:37.748Z,30.50
2018-07-24T13:34:42.866Z,30.30
2018-07-24T13:38:01.148Z,30.10
2018-07-24T13:44:10.770Z,30.30
2018-07-24T13:47:16.278Z,30.40
2018-07-24T13:50:20.890Z,30.60
2018-07-24T13:53:27.165Z,30.40
2018-07-24T13:56:34.894Z,30.50
2018-07-24T13:59:42.247Z,30.40
2018-07-24T14:06:29.760Z,30.40
2018-07-24T14:10:03.014Z,30.70
2018-07-24T14:16:44.270Z,30.60
2018-07-24T14:19:49.104Z,30.50
2018-07-24T14:23:11.620Z,30.70
2018-07-24T14:26:19.044Z,30.90
2018-07-24T14:29:24.009Z,30.60
2018-07-24T14:32:28.900Z,30.70
2018-07-24T14:35:37.774Z,30.70
2018-07-24T14:38:42.259Z,30.80
2018-07-24T14:41:57.863Z,31.00
2018-07-24T14:45:02.409Z,30.90
2018-07-24T14:48:07.094Z,30.70
2018-07-24T14:51:11.520Z,30.70
2018-07-24T14:54:15.944Z,30.70
2018-07-24T14:57:20.760Z,30.60
2018-07-24T15:00:25.437Z,30.80
2018-07-24T15:03:29.856Z,30.90
2018-07-24T15:06:34.855Z,30.90
2018-07-24T15:09:39.419Z,30.90
2018-07-24T15:12:44.068Z,30.90
2018-07-24T15:15:49.260Z,30.70
2018-07-24T15:18:53.917Z,30.80
2018-07-24T15:21:58.527Z,30.90
2018-07-24T15:25:02.999Z,30.90
2018-07-24T15:28:07.454Z,30.70
2018-07-24T15:31:12.235Z,30.80
2018-07-24T15:34:18.403Z,30.80
2018-07-24T15:37:23.132Z,31.00
2018-07-24T15:40:27.753Z,30.90
2018-07-24T15:43:32.387Z,30.90
2018-07-24T15:46:37.175Z,30.80
2018-07-24T15:49:41.965Z,30.80
2018-07-24T15:52:46.520Z,30.80
2018-07-24T15:55:55.146Z,30.70
2018-07-24T15:59:09.789Z,30.80
2018-07-24T16:02:14.461Z,30.80
2018-07-24T16:05:19.079Z,30.90
2018-07-24T16:08:23.501Z,31.10
2018-07-24T16:11:27.976Z,30.90
2018-07-24T16:14:32.452Z,30.90
2018-07-24T16:17:36.963Z,30.90
2018-07-24T16:20:41.456Z,30.90
2018-07-24T16:23:46.130Z,30.80
2018-07-24T16:26:51.043Z,30.80
2018-07-24T16:29:55.980Z,30.90
2018-07-24T16:33:00.592Z,30.60
2018-07-24T16:36:05.192Z,30.70
2018-07-24T16:39:11.325Z,30.80
2018-07-24T16:45:20.288Z,30.70
2018-07-24T16:48:25.181Z,30.60
2018-07-24T16:51:30.152Z,30.60
2018-07-24T16:54:35.482Z,30.60
2018-07-24T16:57:40.175Z,30.60
2018-07-24T17:00:48.695Z,30.50
2018-07-24T17:03:54.210Z,30.50
2018-07-24T17:06:59.045Z,30.40
2018-07-24T17:10:03.991Z,30.40
2018-07-24T17:13:08.868Z,30.50
2018-07-24T17:16:13.764Z,30.50
2018-07-24T17:19:18.402Z,30.40
2018-07-24T17:22:23.533Z,30.30
2018-07-24T17:25:28.371Z,30.20
2018-07-24T17:28:33.388Z,30.40
2018-07-24T17:31:40.473Z,30.20
2018-07-24T17:34:46.258Z,30.20
2018-07-24T17:37:51.009Z,30.20
2018-07-24T17:40:56.764Z,30.30
2018-07-24T17:44:01.224Z,30.20
2018-07-24T17:47:05.958Z,30.00
2018-07-24T17:50:10.792Z,30.10
2018-07-24T17:53:15.357Z,30.10
2018-07-24T17:56:20.070Z,30.00
2018-07-24T17:59:25.045Z,29.90
2018-07-24T18:02:29.736Z,29.80
2018-07-24T18:05:35.593Z,29.70
2018-07-24T18:08:40.423Z,29.70
2018-07-24T18:11:47.091Z,29.60
2018-07-24T18:14:51.965Z,29.60
2018-07-24T18:17:56.715Z,29.60
2018-07-24T18:21:01.241Z,29.50
2018-07-24T18:24:05.923Z,29.50
2018-07-24T18:27:11.632Z,29.30
2018-07-24T18:30:16.201Z,29.20
2018-07-24T18:33:21.173Z,29.00
2018-07-24T18:36:26.365Z,29.00
2018-07-24T18:39:31.095Z,29.00
2018-07-24T18:42:35.800Z,28.80
2018-07-24T18:45:40.761Z,28.70
2018-07-24T18:48:45.721Z,28.60
2018-07-24T18:51:50.672Z,28.60
2018-07-24T18:54:55.519Z,28.40
2018-07-24T18:58:00.190Z,28.40
2018-07-24T19:01:05.070Z,28.30
2018-07-24T19:04:10.113Z,28.20
2018-07-24T19:07:14.682Z,28.00
2018-07-24T19:10:19.292Z,27.70
2018-07-24T19:13:24.441Z,27.40
2018-07-24T19:16:29.380Z,27.20
2018-07-24T19:19:35.700Z,26.90
2018-07-24T19:22:40.665Z,26.70
2018-07-24T19:25:45.536Z,26.40
2018-07-24T19:28:50.907Z,26.20
2018-07-24T19:31:56.257Z,26.10
2018-07-24T19:35:01.124Z,25.90
2018-07-24T19:38:06.186Z,25.70
2018-07-24T19:41:11.242Z,25.60
2018-07-24T19:44:16.479Z,25.40
2018-07-24T19:47:22.108Z,25.20
2018-07-24T19:50:28.409Z,25.10
2018-07-24T19:53:34.603Z,24.80
2018-07-24T19:56:39.797Z,24.80
2018-07-24T19:59:44.617Z,24.70
2018-07-24T20:02:49.469Z,24.50
2018-07-24T20:05:54.404Z,24.40
2018-07-24T20:08:59.478Z,24.30
2018-07-24T20:12:04.490Z,24.10
2018-07-24T20:15:14.261Z,24.00
2018-07-24T20:18:19.708Z,23.90
2018-07-24T20:21:24.839Z,23.90
2018-07-24T20:24:29.818Z,23.80
2018-07-24T20:27:35.802Z,23.90
2018-07-24T20:30:40.700Z,23.80
2018-07-24T20:33:45.873Z,23.70
2018-07-24T20:36:51.208Z,23.60
2018-07-24T20:39:55.949Z,23.60
2018-07-24T20:43:00.966Z,23.50
2018-07-24T20:46:06.060Z,23.40
2018-07-24T20:49:10.990Z,23.30
2018-07-24T20:52:15.741Z,23.20
2018-07-24T20:55:20.419Z,23.20
2018-07-24T20:58:25.179Z,23.20
2018-07-24T21:01:29.971Z,23.10
2018-07-24T21:04:35.040Z,23.00
2018-07-24T21:07:39.643Z,22.90
2018-07-24T21:10:44.467Z,22.70
2018-07-24T21:13:49.321Z,22.80
2018-07-24T21:16:54.223Z,22.70
2018-07-24T21:23:03.125Z,22.50
2018-07-24T21:26:07.710Z,22.40
2018-07-24T21:29:12.693Z,22.30
2018-07-24T21:32:17.418Z,22.20
2018-07-24T21:35:22.112Z,22.10
2018-07-24T21:38:26.835Z,22.10
2018-07-24T21:41:33.210Z,22.10
2018-07-24T21:44:38.647Z,22.10
2018-07-24T21:47:44.419Z,22.00
2018-07-24T21:50:49.232Z,21.90
2018-07-24T21:53:54.181Z,21.80
2018-07-24T21:56:58.804Z,21.70
2018-07-24T22:00:04.780Z,21.70
2018-07-24T22:03:10.339Z,21.50
2018-07-24T22:06:15.294Z,21.40
2018-07-24T22:09:19.950Z,21.30
2018-07-24T22:12:24.659Z,21.20
2018-07-24T22:15:29.303Z,21.00
2018-07-24T22:18:34.631Z,20.90
2018-07-24T22:21:39.374Z,20.80
2018-07-24T22:24:44.390Z,20.60
2018-07-24T22:27:49.877Z,20.50
2018-07-24T22:30:54.711Z,20.40
2018-07-24T22:37:27.849Z,20.20
2018-07-24T22:40:35.068Z,20.10
2018-07-24T22:47:15.994Z,20.00
2018-07-24T22:51:54.912Z,20.00
2018-07-24T22:55:06.365Z,19.90
2018-07-24T22:58:16.834Z,19.80
2018-07-24T23:01:24.756Z,19.90
2018-07-24T23:07:36.120Z,20.00
2018-07-24T23:10:40.843Z,19.90
2018-07-24T23:13:46.710Z,19.70
2018-07-24T23:16:51.544Z,19.70
2018-07-24T23:19:56.602Z,19.50
2018-07-24T23:23:01.346Z,19.40
2018-07-24T23:26:05.950Z,19.40
2018-07-24T23:29:11.013Z,19.30
2018-07-24T23:32:16.139Z,19.30
2018-07-24T23:35:20.813Z,19.40
2018-07-24T23:38:25.722Z,19.50
2018-07-24T23:41:30.452Z,19.40
2018-07-24T23:44:35.475Z,19.30
2018-07-24T23:47:40.136Z,19.40
2018-07-24T23:50:45.101Z,19.20
2018-07-24T23:53:50.042Z,19.20
2018-07-24T23:56:55.046Z,19.20
